createdAt,value
2022-09-12T00:01:27.049Z,77.73
2022-09-12T00:03:58.406Z,77.72
2022-09-12T00:06:32.734Z,77.63
2022-09-12T00:09:04.405Z,77.81
2022-09-12T00:11:32.387Z,78.09
2022-09-12T00:14:01.596Z,78.10
2022-09-12T00:16:33.181Z,77.92
2022-09-12T00:19:02.340Z,77.93
2022-09-12T00:21:30.291Z,77.92
2022-09-12T00:23:58.468Z,78.00
2022-09-12T00:26:27.210Z,77.62
2022-09-12T00:28:55.225Z,77.39
2022-09-12T00:31:25.307Z,77.13
2022-09-12T00:33:56.743Z,77.41
2022-09-12T00:36:26.259Z,77.58
2022-09-12T00:38:55.027Z,77.18
2022-09-12T00:41:32.299Z,77.10
2022-09-12T00:44:22.859Z,77.16
2022-09-12T00:46:53.273Z,77.11
2022-09-12T00:49:26.982Z,77.21
2022-09-12T00:51:58.629Z,77.09
2022-09-12T00:54:32.643Z,76.76
2022-09-12T00:57:06.801Z,77.05
2022-09-12T00:59:50.345Z,76.86
2022-09-12T01:02:18.966Z,76.82
2022-09-12T01:04:48.070Z,76.71
2022-09-12T01:07:16.458Z,77.02
2022-09-12T01:09:46.013Z,76.61
2022-09-12T01:12:15.422Z,76.66
2022-09-12T01:14:43.930Z,76.76
2022-09-12T01:17:15.056Z,76.59
2022-09-12T01:20:04.946Z,76.69
2022-09-12T01:23:06.376Z,76.59
2022-09-12T01:25:56.076Z,76.31
2022-09-12T01:28:52.038Z,76.07
2022-09-12T01:31:44.714Z,76.04
2022-09-12T01:34:36.075Z,75.97
2022-09-12T01:37:07.226Z,76.12
2022-09-12T01:39:41.047Z,76.11
2022-09-12T01:42:39.375Z,76.17
2022-09-12T01:45:29.319Z,75.96
2022-09-12T01:48:15.552Z,76.17
2022-09-12T01:51:01.175Z,76.12
2022-09-12T01:53:44.252Z,76.25
2022-09-12T01:56:27.376Z,76.05
2022-09-12T01:59:04.053Z,76.16
2022-09-12T02:01:34.989Z,76.08
2022-09-12T02:04:26.028Z,75.97
2022-09-12T02:07:18.422Z,76.20
2022-09-12T02:09:53.043Z,76.26
2022-09-12T02:12:27.727Z,76.23
2022-09-12T02:15:02.594Z,76.40
2022-09-12T02:17:35.208Z,76.02
2022-09-12T02:20:25.966Z,76.14
2022-09-12T02:23:06.240Z,76.27
2022-09-12T02:25:40.244Z,75.80
2022-09-12T02:28:17.948Z,75.86
2022-09-12T02:31:01.086Z,76.03
2022-09-12T02:33:56.749Z,75.94
2022-09-12T02:36:55.499Z,75.86
2022-09-12T02:39:24.711Z,76.11
2022-09-12T02:41:58.250Z,76.06
2022-09-12T02:44:29.955Z,76.35
2022-09-12T02:47:05.004Z,76.28
2022-09-12T02:49:33.834Z,76.59
2022-09-12T02:52:02.870Z,76.99
2022-09-12T02:54:31.530Z,77.20
2022-09-12T02:56:59.479Z,77.43
2022-09-12T02:59:28.539Z,77.40
2022-09-12T03:02:37.989Z,77.61
2022-09-12T03:05:23.012Z,78.36
2022-09-12T03:07:57.565Z,78.60
2022-09-12T03:10:32.873Z,79.09
2022-09-12T03:13:25.358Z,79.28
2022-09-12T03:16:08.714Z,79.63
2022-09-12T03:19:14.995Z,80.07
2022-09-12T03:21:55.241Z,80.46
2022-09-12T03:24:35.461Z,80.57
2022-09-12T03:27:30.280Z,81.05
2022-09-12T03:30:00.230Z,81.61
2022-09-12T03:32:49.885Z,81.32
2022-09-12T03:35:23.192Z,81.13
2022-09-12T03:37:53.288Z,81.39
2022-09-12T03:40:21.383Z,80.72
2022-09-12T03:42:49.373Z,80.78
2022-09-12T03:45:17.519Z,80.99
2022-09-12T03:47:45.817Z,80.64
2022-09-12T03:50:13.846Z,80.94
2022-09-12T03:52:42.310Z,80.87
2022-09-12T03:55:10.464Z,81.36
2022-09-12T03:57:38.730Z,81.80
2022-09-12T04:00:11.151Z,81.31
2022-09-12T04:02:41.919Z,81.43
2022-09-12T04:05:09.948Z,81.15
2022-09-12T04:07:37.923Z,81.02
2022-09-12T04:10:06.358Z,80.77
2022-09-12T04:12:35.754Z,80.49
2022-09-12T04:15:04.056Z,80.87
2022-09-12T04:17:32.637Z,81.26
2022-09-12T04:20:01.086Z,81.25
2022-09-12T04:22:30.301Z,81.55
2022-09-12T04:24:58.302Z,80.93
2022-09-12T04:27:26.254Z,80.86
2022-09-12T04:29:55.422Z,80.32
2022-09-12T04:32:23.570Z,80.30
2022-09-12T04:34:52.754Z,80.29
2022-09-12T04:37:21.717Z,80.57
2022-09-12T04:39:50.037Z,80.19
2022-09-12T04:42:18.065Z,79.85
2022-09-12T04:44:46.003Z,79.36
2022-09-12T04:47:14.084Z,78.89
2022-09-12T04:49:42.120Z,78.73
2022-09-12T04:52:10.049Z,78.62
2022-09-12T04:54:38.136Z,78.81
2022-09-12T04:57:06.099Z,78.70
2022-09-12T04:59:34.059Z,78.75
2022-09-12T05:02:02.745Z,78.73
2022-09-12T05:04:34.499Z,78.52
2022-09-12T05:07:03.012Z,78.83
2022-09-12T05:09:31.054Z,78.93
2022-09-12T05:12:04.255Z,79.17
2022-09-12T05:14:34.855Z,79.04
2022-09-12T05:17:04.109Z,79.06
2022-09-12T05:19:33.136Z,79.23
2022-09-12T05:22:01.294Z,79.03
2022-09-12T05:24:29.696Z,78.78
2022-09-12T05:26:57.633Z,78.67
2022-09-12T05:29:25.733Z,78.34
2022-09-12T05:31:53.873Z,78.76
2022-09-12T05:34:22.495Z,78.47
2022-09-12T05:36:51.798Z,78.93
2022-09-12T05:39:21.333Z,78.88
2022-09-12T05:41:49.741Z,77.98
2022-09-12T05:44:27.169Z,78.06
2022-09-12T05:46:55.126Z,78.01
2022-09-12T05:49:23.301Z,78.71
2022-09-12T05:51:51.813Z,78.12
2022-09-12T05:54:20.858Z,77.13
2022-09-12T05:56:49.352Z,77.10
2022-09-12T05:59:21.783Z,77.07
2022-09-12T06:01:50.330Z,75.67
2022-09-12T06:04:18.762Z,75.53
2022-09-12T06:06:47.101Z,74.80
2022-09-12T06:09:16.911Z,74.96
2022-09-12T06:11:46.422Z,75.03
2022-09-12T06:14:17.785Z,75.34
2022-09-12T06:16:47.533Z,75.98
2022-09-12T06:19:19.287Z,75.60
2022-09-12T06:21:49.842Z,73.48
2022-09-12T06:24:19.673Z,73.50
2022-09-12T06:26:49.907Z,73.26
2022-09-12T06:29:19.361Z,71.86
2022-09-12T06:31:47.873Z,71.39
2022-09-12T06:34:16.715Z,71.36
2022-09-12T06:36:49.059Z,71.19
2022-09-12T06:39:22.358Z,70.85
2022-09-12T06:41:52.153Z,70.09
2022-09-12T06:44:29.988Z,69.04
2022-09-12T06:46:58.954Z,68.45
2022-09-12T06:49:26.929Z,67.46
2022-09-12T06:51:54.910Z,66.61
2022-09-12T06:54:23.595Z,66.34
2022-09-12T06:56:51.440Z,64.64
2022-09-12T06:59:20.222Z,65.03
2022-09-12T07:01:48.310Z,64.18
2022-09-12T07:04:16.388Z,64.29
2022-09-12T07:06:45.131Z,63.91
2022-09-12T07:09:17.192Z,63.47
2022-09-12T07:11:46.469Z,63.79
2022-09-12T07:14:15.155Z,62.34
2022-09-12T07:16:44.278Z,61.96
2022-09-12T07:19:12.413Z,61.74
2022-09-12T07:21:41.005Z,61.68
2022-09-12T07:24:10.981Z,60.90
2022-09-12T07:26:42.506Z,60.67
2022-09-12T07:29:35.779Z,59.98
2022-09-12T07:32:05.968Z,59.29
2022-09-12T07:34:36.149Z,59.03
2022-09-12T07:37:06.113Z,58.99
2022-09-12T07:39:34.114Z,58.87
2022-09-12T07:42:02.073Z,57.71
2022-09-12T07:44:31.565Z,57.16
2022-09-12T07:46:59.515Z,56.71
2022-09-12T07:49:27.541Z,57.29
2022-09-12T07:51:56.213Z,56.66
2022-09-12T07:54:24.431Z,56.72
2022-09-12T07:56:52.518Z,57.20
2022-09-12T07:59:41.432Z,56.61
2022-09-12T08:02:17.789Z,55.95
2022-09-12T08:04:48.766Z,55.84
2022-09-12T08:07:19.256Z,56.52
2022-09-12T08:09:47.676Z,56.67
2022-09-12T08:12:17.887Z,55.96
2022-09-12T08:14:46.461Z,55.20
2022-09-12T08:17:14.570Z,56.10
2022-09-12T08:19:42.591Z,56.36
2022-09-12T08:22:11.749Z,55.44
2022-09-12T08:24:39.761Z,55.91
2022-09-12T08:27:08.118Z,56.02
2022-09-12T08:29:35.993Z,55.68
2022-09-12T08:32:04.268Z,55.64
2022-09-12T08:34:32.645Z,55.34
2022-09-12T08:37:00.689Z,55.61
2022-09-12T08:39:28.898Z,55.04
2022-09-12T08:42:06.746Z,55.03
2022-09-12T08:44:55.846Z,54.50
2022-09-12T08:47:31.955Z,54.65
2022-09-12T08:50:09.649Z,54.14
2022-09-12T08:52:53.227Z,52.49
2022-09-12T08:55:46.543Z,51.77
2022-09-12T08:58:20.286Z,50.82
2022-09-12T09:01:03.882Z,50.06
2022-09-12T09:03:40.820Z,51.42
2022-09-12T09:06:47.313Z,51.01
2022-09-12T09:09:21.036Z,50.99
2022-09-12T09:12:12.114Z,51.65
2022-09-12T09:14:52.216Z,50.46
2022-09-12T09:17:32.920Z,51.00
2022-09-12T09:20:25.841Z,50.35
2022-09-12T09:23:03.338Z,50.90
2022-09-12T09:25:53.893Z,51.61
2022-09-12T09:28:25.305Z,51.17
2022-09-12T09:30:53.903Z,51.55
2022-09-12T09:33:26.280Z,50.79
2022-09-12T09:35:57.019Z,50.28
2022-09-12T09:38:46.397Z,50.35
2022-09-12T09:41:25.990Z,47.61
2022-09-12T09:43:54.062Z,48.04
2022-09-12T09:46:22.330Z,47.89
2022-09-12T09:48:51.907Z,46.75
2022-09-12T09:51:28.934Z,46.63
2022-09-12T09:54:02.956Z,47.72
2022-09-12T09:56:37.849Z,47.41
2022-09-12T09:59:28.661Z,47.13
2022-09-12T10:02:04.026Z,48.50
2022-09-12T10:04:41.495Z,47.50
2022-09-12T10:07:22.045Z,45.52
2022-09-12T10:10:17.255Z,47.32
2022-09-12T10:12:46.108Z,48.91
2022-09-12T10:15:29.532Z,47.93
2022-09-12T10:18:00.660Z,48.30
2022-09-12T10:20:37.952Z,47.50
2022-09-12T10:23:37.564Z,45.91
2022-09-12T10:26:11.618Z,45.68
2022-09-12T10:28:45.448Z,46.62
2022-09-12T10:31:29.328Z,45.50
2022-09-12T10:33:59.755Z,46.14
2022-09-12T10:36:38.538Z,45.23
2022-09-12T10:39:07.655Z,45.55
2022-09-12T10:41:41.279Z,45.19
2022-09-12T10:44:17.288Z,44.80
2022-09-12T10:46:45.985Z,43.74
2022-09-12T10:49:21.464Z,42.61
2022-09-12T10:51:50.891Z,42.32
2022-09-12T10:54:21.613Z,42.29
2022-09-12T10:57:01.858Z,42.69
2022-09-12T10:59:46.276Z,43.63
2022-09-12T11:02:29.758Z,44.75
2022-09-12T11:05:13.845Z,44.12
2022-09-12T11:07:49.829Z,42.75
2022-09-12T11:10:36.884Z,44.24
2022-09-12T11:13:30.244Z,43.42
2022-09-12T11:16:18.795Z,42.63
2022-09-12T11:19:33.865Z,41.44
2022-09-12T11:22:31.872Z,42.51
2022-09-12T11:25:18.150Z,42.56
2022-09-12T11:28:12.884Z,41.72
2022-09-12T11:30:59.104Z,41.02
2022-09-12T11:33:45.291Z,41.08
2022-09-12T11:36:28.767Z,41.26
2022-09-12T11:39:15.634Z,41.18
2022-09-12T11:41:50.899Z,40.33
2022-09-12T11:44:40.246Z,40.09
2022-09-12T11:47:12.871Z,40.89
2022-09-12T11:49:51.231Z,41.07
2022-09-12T11:52:28.772Z,40.47
2022-09-12T11:55:09.031Z,40.38
2022-09-12T11:57:43.497Z,40.60
2022-09-12T12:00:23.938Z,41.19
2022-09-12T12:03:11.379Z,40.30
2022-09-12T12:05:54.513Z,40.11
2022-09-12T12:08:24.418Z,41.62
2022-09-12T12:10:58.679Z,41.82
2022-09-12T12:13:32.020Z,42.17
2022-09-12T12:16:08.150Z,43.01
2022-09-12T12:18:41.049Z,42.43
2022-09-12T12:21:41.349Z,43.02
2022-09-12T12:24:09.305Z,42.16
2022-09-12T12:26:40.235Z,42.44
2022-09-12T12:29:17.079Z,42.52
2022-09-12T12:32:02.683Z,41.58
2022-09-12T12:34:32.362Z,41.11
2022-09-12T12:37:20.334Z,41.60
2022-09-12T12:39:51.243Z,41.96
2022-09-12T12:42:42.612Z,41.63
2022-09-12T12:45:22.550Z,41.37
2022-09-12T12:48:05.080Z,42.61
2022-09-12T12:50:36.196Z,42.27
2022-09-12T12:53:16.506Z,42.11
2022-09-12T12:55:44.439Z,41.53
2022-09-12T12:58:37.280Z,41.64
2022-09-12T13:01:16.141Z,42.19
2022-09-12T13:03:59.394Z,42.29
2022-09-12T13:06:45.425Z,42.00
2022-09-12T13:09:14.478Z,42.75
2022-09-12T13:11:42.850Z,42.30
2022-09-12T13:14:47.756Z,41.79
2022-09-12T13:17:26.498Z,42.11
2022-09-12T13:20:26.732Z,42.38
2022-09-12T13:22:54.820Z,41.78
2022-09-12T13:25:23.864Z,41.98
2022-09-12T13:27:58.795Z,43.00
2022-09-12T13:30:29.473Z,42.23
2022-09-12T13:33:02.979Z,42.15
2022-09-12T13:35:57.033Z,42.75
2022-09-12T13:39:02.704Z,41.89
2022-09-12T13:42:00.235Z,42.34
2022-09-12T13:44:30.272Z,42.31
2022-09-12T13:47:01.768Z,42.47
2022-09-12T13:49:36.201Z,42.44
2022-09-12T13:52:16.215Z,42.80
2022-09-12T13:54:51.777Z,42.81
2022-09-12T13:57:38.234Z,43.09
2022-09-12T14:00:18.265Z,42.92
2022-09-12T14:02:48.598Z,43.43
2022-09-12T14:05:24.354Z,43.74
2022-09-12T14:07:53.581Z,43.70
2022-09-12T14:10:33.213Z,43.35
2022-09-12T14:13:05.614Z,42.63
2022-09-12T14:15:37.119Z,43.16
2022-09-12T14:18:08.381Z,41.86
2022-09-12T14:20:38.673Z,42.08
2022-09-12T14:23:25.227Z,41.04
2022-09-12T14:25:54.694Z,41.43
2022-09-12T15:27:47.125Z,44.61
2022-09-12T15:30:15.712Z,45.14
2022-09-12T15:32:44.924Z,45.00
2022-09-12T15:35:22.627Z,45.29
2022-09-12T15:37:50.899Z,44.95
2022-09-12T15:40:19.135Z,45.95
2022-09-12T15:42:47.061Z,45.62
2022-09-12T15:45:29.317Z,45.93
2022-09-12T15:47:57.977Z,45.87
2022-09-12T15:50:26.550Z,46.27
2022-09-12T15:52:55.749Z,46.71
2022-09-12T15:55:27.864Z,47.42
2022-09-12T15:57:55.905Z,47.42
2022-09-12T16:00:24.788Z,47.41
2022-09-12T16:02:54.271Z,47.88
2022-09-12T16:05:25.315Z,48.51
2022-09-12T16:07:55.005Z,48.45
2022-09-12T16:10:26.536Z,48.98
2022-09-12T16:12:54.759Z,49.05
2022-09-12T16:15:25.339Z,49.08
2022-09-12T16:17:53.678Z,48.97
2022-09-12T16:20:22.884Z,48.94
2022-09-12T16:22:50.854Z,49.33
2022-09-12T16:25:18.949Z,49.53
2022-09-12T16:27:46.977Z,49.61
2022-09-12T16:30:14.990Z,50.21
2022-09-12T16:32:42.831Z,50.23
2022-09-12T16:35:10.732Z,50.56
2022-09-12T16:37:38.684Z,50.61
2022-09-12T16:40:07.713Z,51.17
2022-09-12T16:42:37.415Z,51.32
2022-09-12T16:45:07.738Z,51.56
2022-09-12T16:47:35.799Z,51.98
2022-09-12T16:50:04.182Z,52.08
2022-09-12T16:52:33.896Z,52.22
2022-09-12T16:55:01.830Z,52.41
2022-09-12T16:57:29.742Z,52.35
2022-09-12T16:59:57.803Z,52.73
2022-09-12T17:02:26.587Z,53.12
2022-09-12T17:04:55.196Z,53.25
2022-09-12T17:07:23.060Z,53.26
2022-09-12T17:09:51.463Z,53.58
2022-09-12T17:12:21.870Z,53.63
2022-09-12T17:14:53.193Z,53.54
2022-09-12T17:17:22.413Z,53.99
2022-09-12T17:19:51.084Z,53.78
2022-09-12T17:22:19.211Z,54.14
2022-09-12T17:24:47.323Z,54.33
2022-09-12T17:27:15.319Z,54.50
2022-09-12T17:29:43.484Z,54.99
2022-09-12T17:32:14.466Z,55.07
2022-09-12T17:34:45.385Z,55.04
2022-09-12T17:37:14.462Z,55.67
2022-09-12T17:39:42.757Z,55.39
2022-09-12T17:42:10.699Z,55.71
2022-09-12T17:44:38.730Z,55.65
2022-09-12T17:47:06.792Z,55.63
2022-09-12T17:49:35.826Z,55.60
2022-09-12T17:52:03.714Z,55.62
2022-09-12T17:54:31.795Z,55.89
2022-09-12T17:56:59.784Z,56.10
2022-09-12T17:59:28.616Z,56.14
2022-09-12T18:02:16.220Z,57.18
2022-09-12T18:04:48.533Z,60.05
2022-09-12T18:07:18.494Z,61.37
2022-09-12T18:09:50.703Z,62.35
2022-09-12T18:12:20.082Z,63.62
2022-09-12T18:14:48.015Z,63.90
2022-09-12T18:17:16.461Z,64.76
2022-09-12T18:19:49.266Z,65.22
2022-09-12T18:22:21.034Z,65.15
2022-09-12T18:24:48.895Z,64.96
2022-09-12T18:27:16.926Z,65.34
2022-09-12T18:29:51.943Z,65.55
2022-09-12T18:32:32.615Z,65.21
2022-09-12T18:35:00.586Z,65.33
2022-09-12T18:37:28.607Z,65.90
2022-09-12T18:39:57.981Z,66.37
2022-09-12T18:42:26.090Z,66.47
2022-09-12T18:44:54.064Z,66.66
2022-09-12T18:47:23.600Z,66.81
2022-09-12T18:49:51.552Z,67.04
2022-09-12T18:52:19.481Z,66.81
2022-09-12T18:54:47.743Z,67.20
2022-09-12T18:57:18.416Z,65.91
2022-09-12T18:59:46.347Z,65.34
2022-09-12T19:02:17.489Z,63.76
2022-09-12T19:04:45.447Z,62.33
2022-09-12T19:07:14.073Z,61.84
2022-09-12T19:09:42.185Z,60.51
2022-09-12T19:12:10.354Z,60.72
2022-09-12T19:14:38.410Z,61.72
2022-09-12T19:17:06.345Z,61.88
2022-09-12T19:19:37.668Z,61.76
2022-09-12T19:22:11.536Z,61.54
2022-09-12T19:24:39.933Z,61.71
2022-09-12T19:27:07.931Z,61.56
2022-09-12T19:29:35.915Z,61.89
2022-09-12T19:32:03.814Z,62.04
2022-09-12T19:34:31.670Z,61.48
2022-09-12T19:36:59.629Z,61.72
2022-09-12T19:39:27.503Z,62.01
2022-09-12T19:41:55.387Z,61.93
2022-09-12T19:44:27.150Z,60.87
2022-09-12T19:46:55.152Z,61.54
2022-09-12T19:49:23.078Z,61.52
2022-09-12T19:51:51.104Z,61.83
2022-09-12T19:54:19.391Z,61.58
2022-09-12T19:56:47.414Z,62.31
2022-09-12T19:59:15.260Z,62.49
2022-09-12T20:01:43.303Z,62.35
2022-09-12T20:04:11.393Z,62.12
2022-09-12T20:06:39.267Z,61.93
2022-09-12T20:09:07.168Z,61.84
2022-09-12T20:11:35.585Z,62.41
2022-09-12T20:14:03.536Z,62.77
2022-09-12T20:16:33.554Z,62.26
2022-09-12T20:19:07.082Z,62.78
2022-09-12T20:21:36.484Z,63.55
2022-09-12T20:24:12.101Z,63.73
2022-09-12T20:26:40.898Z,64.30
2022-09-12T20:29:10.163Z,64.42
2022-09-12T20:31:40.039Z,64.84
2022-09-12T20:34:13.633Z,64.87
2022-09-12T20:36:41.749Z,65.08
2022-09-12T20:39:21.387Z,65.09
2022-09-12T20:41:49.347Z,64.70
2022-09-12T20:44:17.607Z,64.74
2022-09-12T20:46:45.640Z,64.50
2022-09-12T20:49:13.644Z,64.22
2022-09-12T20:51:41.701Z,63.92
2022-09-12T20:54:10.907Z,64.03
2022-09-12T20:56:39.242Z,64.30
2022-09-12T20:59:12.831Z,63.60
2022-09-12T21:01:40.865Z,63.60
2022-09-12T21:04:12.982Z,63.20
2022-09-12T21:06:42.837Z,63.54
2022-09-12T21:09:10.944Z,63.65
2022-09-12T21:11:38.869Z,63.96
2022-09-12T21:14:06.865Z,64.26
2022-09-12T21:16:38.826Z,64.47
2022-09-12T21:19:07.016Z,64.34
2022-09-12T21:21:34.929Z,64.25
2022-09-12T21:24:04.034Z,64.30
2022-09-12T21:26:32.888Z,64.03
2022-09-12T21:29:00.810Z,63.86
2022-09-12T21:31:28.798Z,63.71
2022-09-12T21:33:56.778Z,63.84
2022-09-12T21:36:25.385Z,63.71
2022-09-12T21:38:53.428Z,64.03
2022-09-12T21:41:21.393Z,63.66
2022-09-12T21:43:49.954Z,63.79
2022-09-12T21:46:18.264Z,64.04
2022-09-12T21:48:46.308Z,64.08
2022-09-12T21:51:14.271Z,63.74
2022-09-12T21:53:42.839Z,63.74
2022-09-12T21:56:11.233Z,63.47
2022-09-12T21:58:39.490Z,63.85
2022-09-12T22:01:09.744Z,63.33
2022-09-12T22:03:37.927Z,63.45
2022-09-12T22:06:06.445Z,63.26
2022-09-12T22:08:36.138Z,63.61
2022-09-12T22:11:09.631Z,63.72
2022-09-12T22:13:39.367Z,63.53
2022-09-12T22:16:07.750Z,63.68
2022-09-12T22:18:36.862Z,63.45
2022-09-12T22:21:14.775Z,63.39
2022-09-12T22:24:01.635Z,64.07
2022-09-12T22:26:34.613Z,63.48
2022-09-12T22:29:02.628Z,64.02
2022-09-12T22:31:31.264Z,63.91
2022-09-12T22:33:59.665Z,64.05
2022-09-12T22:36:31.138Z,64.06
2022-09-12T22:39:00.462Z,63.76
2022-09-12T22:41:28.576Z,63.89
2022-09-12T22:43:57.771Z,63.63
2022-09-12T22:46:25.961Z,63.71
2022-09-12T22:48:55.817Z,63.73
2022-09-12T22:51:24.444Z,63.66
2022-09-12T22:53:52.551Z,63.80
2022-09-12T22:56:20.525Z,63.71
2022-09-12T22:58:49.175Z,63.36
2022-09-12T23:01:17.996Z,63.47
2022-09-12T23:03:46.121Z,63.65
2022-09-12T23:06:14.191Z,63.55
2022-09-12T23:08:42.276Z,63.66
2022-09-12T23:11:15.048Z,64.06
2022-09-12T23:13:47.091Z,63.50
2022-09-12T23:16:22.048Z,62.96
2022-09-12T23:18:50.417Z,62.66
2022-09-12T23:21:21.231Z,62.73
2022-09-12T23:23:50.813Z,62.81
2022-09-12T23:26:22.108Z,62.27
2022-09-12T23:28:55.474Z,62.86
2022-09-12T23:31:27.528Z,62.91
2022-09-12T23:33:57.102Z,62.36
2022-09-12T23:36:25.991Z,62.40
2022-09-12T23:38:55.516Z,62.69
2022-09-12T23:41:24.173Z,62.92
2022-09-12T23:43:52.325Z,63.17
2022-09-12T23:46:21.344Z,63.09
2022-09-12T23:48:49.528Z,63.29
2022-09-12T23:51:17.699Z,63.45
2022-09-12T23:53:45.614Z,63.24
2022-09-12T23:56:13.545Z,62.83
2022-09-12T23:58:41.975Z,62.90
